ACT        NSW        VIC        QLD        SA        WA        TAS        NT        INFO        CALC            by VK5ZD

Past Date/Time: (dd/mm/yyyy hh:mm or blank for current data)    

  Atmospheric Gas Attenuation - ITU Rec 676-11   --------------- dB/100km ---------------
WA Stations Date Time Temp RH % AH g/m3 Dew Point Wind Direction Speed kph Gust kph Barometer mB Rainfall Since 9am 24GHz 47GHz 76GHz 122GHz 134GHz 241GHz
Albany Airport 08/05 01:40 12.5 89 9.79 10.7 15 17 1033.1 0 22.2 29.1 46.4 121.8 118.3 407.7
Badgingarra 08/05 01:40 13.9 57 6.83 5.7 22 28 1013.1 0 15.8 23.1 32.9 86.0 75.7 258.9
Barimunya 08/05 01:40 18.1 29 4.48 -0.2 26 35 1013.1 0 10.7 18.8 23.3 60.4 45.6 153.8
Barrow Island 08/05 01:40 26.1 61 14.93 18 37 41 1015.6 0 32.2 32.4 58.2 153.8 163.1 566.1
Bedout Island 08/05 01:40 25.9 46 11.14 13.4 59 65 1015.4 0 24.3 26.4 43.4 114.2 114.4 396.0
Bickley 08/05 01:40 12.5 69 7.59 7 32 44 1013.1 0 17.5 24.6 36.4 95.4 86.7 297.4
Boolgeeda 08/05 01:40 19.6 26 4.39 -0.5 19 26 1019.2 0 10.5 18.6 22.8 59.0 44.1 148.6
Bridgetown 08/05 01:40 11.9 82 8.69 8.9 4 6 1031.4 1 19.9 27.3 42.0 110.0 103.6 356.2
Broome 08/05 01:40 22.5 42 8.39 9 19 22 1015.6 0 18.7 23.3 35.1 91.9 85.8 295.5
Bunbury 08/05 01:40 13.2 72 8.27 8.4 11 13 1030.4 0 18.9 26.2 39.5 103.5 96.2 330.4
Busselton Airport 08/05 01:40 9.8 80 7.42 6.5 11 11 1030.5 0 17.2 25.8 37.7 98.6 88.8 304.2
Cape Leeuwin 08/05 01:40 16.2 67 9.24 10.1 35 39 1030.6 0 20.8 26.9 41.9 109.9 105.2 362.3
Cape Naturaliste 08/05 01:40 15.5 70 9.25 10.1 33 39 1029.3 0 20.9 27.1 42.3 110.8 106.1 365.6
Carnarvon 08/05 01:40 21.9 33 6.37 4.9 20 24 1018.7 0 14.5 20.7 28.5 74.3 63.7 217.9
Christmas Creek 08/05 01:40 17.6 27 4.05 -1.6 13 17 1022.6 0 9.8 18.7 22.4 57.8 41.7 139.9
Christmas Island 08/05 01:40 25.8 89 21.43 23.8 20 24 1010.6 0 46.1 44.2 87.9 232.8 260.2 903.9
Cocos Island 08/05 01:40 27.7 94 25.15 26.6 13 17 1010.9 25.4 53.7 50.8 104.5 276.9 314.8 1093.8
Collie East 08/05 01:40 11.5 72 7.44 6.6 4 6 1013.1 0 17.2 24.7 36.3 95.0 85.9 294.4
Coondewanna 08/05 01:40 17.3 29 4.27 -0.9 17 20 1013.1 0 10.3 18.7 22.9 59.2 43.8 147.4
Cunderdin Airport 08/05 01:40 11.7 72 7.53 6.8 15 19 1030.4 0 17.4 25.4 37.3 97.4 88.1 302.0
Curtin 08/05 01:40 21.5 35 6.6 5.4 19 24 1014.4 0 15.0 21.0 29.2 76.3 66.3 227.0
Dalwallinu 08/05 01:40 10.7 69 6.78 5.3 17 17 1028.1 0 15.8 24.4 34.6 90.4 79.2 270.6
Dwellingup 08/05 01:40 11.7 72 7.53 6.8 20 26 1030.1 0 17.4 25.4 37.3 97.4 88.1 301.9
Eliwana Airport 08/05 01:40 20.5 27 4.8 0.8 22 26 1013.1 0 11.3 18.8 23.7 61.4 47.6 161.1
Esperance 08/05 01:40 10.6 88 8.59 8.7 9 11 1034.8 0 19.7 27.7 42.4 111.0 104.3 358.3
Esperance Airport 08/05 01:40 10.7 83 8.15 7.9 13 17 1034.7 0 18.8 26.9 40.5 105.9 98.0 336.5
Eucla 08/05 01:40 15.1 63 8.13 8.1 11 13 1033.4 0.2 18.5 25.5 38.2 99.9 92.3 317.0
Fitzroy Crossing 08/05 01:40 20.1 35 6.08 4.2 1016.2 0 14.0 20.7 28.0 73.1 61.8 210.9
Forrest 08/05 01:40 13.9 68 8.15 8.1 13 13 1033.3 0 18.6 25.9 38.8 101.6 93.9 322.7
Fortescue Dave Forrest 08/05 01:40 17.1 30 4.37 -0.6 17 20 1021.7 0 10.5 19.2 23.5 60.8 45.4 152.6
Garden Island 08/05 01:40 16.3 61 8.46 8.8 22 32 1029.1 0 19.2 25.5 38.7 101.4 94.8 325.9
Geraldton Airport 08/05 01:40 17.6 43 6.45 4.9 28 30 1023.9 0 14.9 22.0 30.5 79.5 68.5 233.9
Gerangamete (Cfa) 08/05 03:30 11.6 94 9.77 10.7 24 35 1013.1 4.6 22.2 28.5 45.9 120.6 117.5 405.0
Giles* 08/05 03:10 11.2 58 5.88 3.3 6 7 1025.1 0 13.9 22.8 30.9 80.4 67.1 228.3
Gingin Airport 08/05 01:40 15.1 55 7.1 6.1 20 22 1028.3 0 16.3 23.7 34.0 88.8 78.9 270.0
Golden Grove 08/05 01:40 13.2 58 6.66 5.1 15 15 1013.1 0 15.5 23.0 32.5 85.0 74.2 253.8
Gooseberry Hill 08/05 01:40 15 59 7.57 7 35 46 1013.1 0 17.3 23.9 35.2 92.2 83.8 287.3
Gudai-Darri Mine 08/05 01:40 19.2 27 4.45 0.1 22 30 1013.1 0 10.6 18.6 22.9 59.4 44.7 150.7
Halls Creek 08/05 03:10 15.9 48 6.5 4.9 11 13 1017.1 0 15.0 22.2 31.0 81.0 70.1 239.5
Hopetoun North 08/05 01:40 9.8 95 8.82 9 9 9 1033.6 0 20.2 28.3 43.8 114.7 108.5 373.1
Iron Bridge Mine 08/05 01:40 23.1 19 3.93 -1.5 28 33 1013.1 0 9.4 17.2 20.3 52.6 37.5 125.8
Jacup 08/05 01:40 9.2 87 7.77 7.2 15 19 1033.3 0 18.0 26.6 39.6 103.5 94.5 324.1
Jandakot 08/05 01:40 16 56 7.63 7.2 17 20 1029 0 17.4 24.3 35.7 93.2 84.6 290.2
Kalgoorlie-Boulder 08/05 01:40 14.2 76 9.28 10 24 26 1031.3 0 21.0 27.6 43.2 113.2 108.5 373.8
Kalumburu 08/05 03:10 22.8 42 8.53 9.2 13 15 1013.4 0 19.0 23.3 35.3 92.7 87.0 299.6
Karijini North 08/05 01:40 20.4 23 4.07 -1.4 30 39 1020.2 0 9.8 18.1 21.6 55.9 40.5 135.7
Karnet 07/05 15:00 20.1 40 6.95 6.3 7 1013.1 0 15.8 21.8 30.9 80.8 71.4 244.6
Karratha 08/05 01:40 22.3 41 8.1 8.4 22 24 1016.4 0 18.1 23.0 34.2 89.5 82.7 284.6
Katanning Rs 08/05 01:40 9.3 92 8.27 8 9 9 1032.5 0.2 19.1 27.4 41.6 109.0 101.3 347.8
Koolan Island / Koolan Central 08/05 01:39 25.5 40 9.47 11.1 26 32 1013.1 0 20.9 24.0 37.5 98.4 94.8 327.4
Kununurra Airport 08/05 03:10 21.8 40 7.67 7.6 13 17 1015.4 0 17.3 22.4 32.8 85.9 78.2 268.7
Lake Grace 08/05 01:40 11.3 84 8.57 8.7 9 11 1032.5 0 19.6 27.3 41.8 109.6 102.8 353.5
Lancelin (Defence) 08/05 01:40 5.7 79 5.63 2.3 4 6 1026.9 0 13.6 23.8 32.1 83.6 68.8 233.4
Laverton 08/05 01:40 11.5 81 8.37 8.4 15 17 1029.4 0 19.2 26.8 40.8 106.7 99.6 342.1
Learmonth 08/05 01:40 19.1 72 11.8 13.9 11 11 1016.8 0 26.1 29.7 50.1 131.9 133.9 463.2
Legendre Island 08/05 01:40 26.7 39 9.87 11.9 59 65 1015.5 0 21.6 24.3 38.4 100.9 98.2 339.4
Leinster 08/05 01:40 11.9 67 7.1 6 13 15 1027.6 0 16.5 24.6 35.4 92.4 82.1 280.9
Leonora Airport 08/05 01:40 11.5 66 6.82 5.4 15 17 1029.3 0 15.9 24.3 34.5 90.0 79.0 270.0
Lombadina 08/05 01:40 26.3 46 11.39 13.8 20 28 1013.1 0 24.8 26.6 44.0 115.9 116.7 403.9
Mandora 08/05 01:40 22.5 27 5.39 2.6 17 26 1017.3 0 12.5 19.3 25.1 65.2 52.8 179.3
Mandurah 08/05 01:40 16 58 7.9 7.7 6 7 1029.3 0 18.0 24.8 36.7 96.0 88.0 302.1
Manjimup 08/05 01:40 9.7 91 8.39 8.3 9 13 1031.5 0.2 19.3 27.5 41.9 109.7 102.4 351.7
Marble Bar 08/05 01:40 21.6 23 4.36 -0.4 19 20 1019.2 0 10.4 18.2 22.2 57.4 42.8 144.0
Mardie 08/05 01:40 23.6 31 6.59 5.5 22 26 1016.4 0 14.9 20.6 28.6 74.5 64.7 221.3
Meekatharra 08/05 01:40 14.8 52 6.59 5.1 22 30 1025.3 0 15.3 22.9 32.1 83.8 72.7 248.3
Millendon (Swan Valley) 08/05 01:40 16.4 53 7.4 7 9 13 1028.5 0 16.9 23.9 34.6 90.4 81.3 278.6
Morawa Airport 08/05 01:40 15.5 52 6.87 5.7 19 22 1026.3 0 15.8 23.2 32.9 85.9 75.5 258.3
Mount Keith 08/05 01:40 11.7 62 6.49 4.7 13 17 1013.1 0 15.2 23.1 32.5 84.9 73.5 251.1
Mount Magnet Airport 08/05 01:40 15.1 51 6.58 5 19 20 1026.5 0 15.2 22.9 32.0 83.5 72.4 247.2
Munglinup West 08/05 01:40 9.5 92 8.38 8.2 13 17 1033.7 0 19.3 27.6 42.0 110.1 102.7 352.7
Newdegate 08/05 01:40 10.1 83 7.85 7.3 11 13 1032.3 0 18.1 26.5 39.4 103.1 94.5 323.9
Newman Airport 08/05 01:40 16.7 35 4.97 1.2 17 20 1022.4 0 11.8 20.1 25.6 66.5 52.2 176.6
Norseman Airport 08/05 01:40 10.9 81 8.06 7.8 17 20 1033 0.4 18.6 26.6 39.9 104.5 96.4 330.8
North Island 08/05 01:40 21.5 46 8.67 9.4 41 46 1022.7 0 19.4 24.2 36.8 96.4 90.8 312.6
Onslow Airport 08/05 01:40 23.8 46 9.89 11.5 24 26 1017.4 0 21.8 25.2 40.0 105.0 102.3 353.2
Paraburdoo 08/05 01:40 20.9 23 4.19 -1 28 37 1019.8 0 10.0 18.1 21.9 56.5 41.4 139.2
Pearce 08/05 01:40 16.6 50 7.06 6.1 11 15 1028.1 0 16.2 23.3 33.2 86.7 76.9 263.3
Perth 08/05 01:40 13.7 65 7.7 7.2 2 6 1028.8 0 17.7 25.1 37.0 96.6 88.0 301.8
Perth Airport 08/05 01:40 16.7 52 7.39 6.8 20 26 1028.6 0 16.9 23.8 34.4 89.9 80.8 277.2
Port Hedland 08/05 01:40 23.7 24 5.13 2 26 33 1016.8 0 11.9 18.7 23.9 62.1 49.3 167.4
Portable Btsa (Dfes) 08/05 01:30 21 29 5.31 2.3 17 19 1013.1 0 12.4 19.3 25.1 65.4 52.7 178.9
Portable Btsb (Dfes) 08/05 01:30 11.8 68 7.16 6.1 13 13 1013.1 0 16.6 24.1 35.0 91.7 81.9 280.6
Portable Btsd (Dfes) 08/05 01:30 10.7 89 8.74 8.9 13 13 1013.1 0 20.0 27.0 42.0 110.2 104.4 358.9
Portable Btsf (Dfes) 08/05 01:00 13.7 54 6.39 4.6 19 22 1013.1 0 14.9 22.5 31.3 81.8 70.5 240.6
Portable Btsh (Dfes) 08/05 01:30 13.8 68 8.1 8 7 7 1013.1 0 18.5 25.1 37.8 99.1 91.8 315.5
Portable Btsj (Dfes) 08/05 01:30 16.4 55 7.68 7.4 9 11 1013.1 0 17.5 23.7 35.0 91.7 83.6 287.1
Portable Btsk (Dfes) 08/05 01:30 19.3 45 7.46 7.1 4 4 1013.1 0 16.9 22.7 33.0 86.4 78.0 267.8
Portable Btsl (Dfes) 08/05 01:30 4.5 89 5.85 2.8 4 6 1013.1 0 14.1 24.0 32.9 86.0 71.9 244.5
Portable Btsm (Dfes) 08/05 01:30 15.3 44 5.75 3.1 6 7 1013.1 0 13.5 21.2 28.4 74.1 61.6 209.5
Portable Btsn (Dfes) 08/05 01:30 13.5 56 6.55 5 13 15 1013.1 0 15.2 22.8 32.0 83.6 72.6 248.1
Portable Btso (Dfes) 08/05 01:30 12.9 68 7.66 7.1 4 7 1013.1 0 17.6 24.6 36.5 95.6 87.2 299.1
Red Rocks Point 08/05 01:40 16.5 60 8.42 8.7 22 24 1034 0 19.1 25.6 38.7 101.2 94.4 324.5
Rocky Gully South 08/05 01:40 10.9 90 8.95 9.3 17 20 1013.1 0 20.5 27.3 42.8 112.3 107.0 368.2
Roebourne Airport 08/05 01:40 21.2 32 5.93 3.9 17 20 1017.3 0 13.6 20.2 27.2 70.9 59.4 202.5
Rottnest Island 08/05 01:40 17.2 56 8.2 8.4 24 28 1028.2 0 18.6 24.9 37.2 97.5 90.3 310.5
Salmon Gums Rs 08/05 01:40 9.1 98 8.7 8.8 7 7 1013.1 0 20.0 27.5 42.7 112.1 106.0 364.4
Shannon 08/05 01:40 11.3 93 9.49 10.2 11 17 1013.1 0 21.6 28.1 44.8 117.9 114.0 392.7
Shark Bay Airport 08/05 01:40 19.5 53 8.89 9.7 20 22 1019.7 0 19.9 25.0 38.4 100.8 95.6 329.2
Solomon Airport 08/05 01:40 19.8 25 4.27 -0.9 28 33 1019.9 0 10.2 18.5 22.4 57.9 42.8 143.9
Southern Cross Airport 08/05 01:40 11.3 83 8.47 8.5 15 15 1031.1 0 19.4 27.1 41.4 108.3 101.3 348.3
Swanbourne 08/05 01:40 15 69 8.85 9.5 7 9 1013.1 0 20.1 25.9 40.2 105.5 100.1 344.8
Telfer 08/05 01:40 15 36 4.62 0.1 19 20 1020.3 0 11.1 19.9 24.9 64.6 49.3 166.1
Thevenard Island 08/05 01:30 25.4 61 14.36 17.3 24 32 1017 0 31.1 31.7 56.5 149.0 157.0 544.6
Troughton Island 08/05 03:10 27 42 10.81 13 44 50 1012.9 0 23.6 25.5 41.5 109.2 108.7 376.0
Truscott 08/05 03:10 23.2 41 8.52 9.2 13 17 1012.7 0 19.0 23.2 35.1 92.1 86.4 297.5
Walpole North 08/05 01:40 12.2 88 9.5 10.3 11 13 1031.9 0 21.6 28.6 45.3 118.7 114.5 394.5
Wandering 08/05 01:40 11.4 73 7.49 6.7 6 7 1013.1 0 17.3 24.8 36.5 95.6 86.6 297.0
Warburton 08/05 03:10 12.1 60 6.44 4.6 13 17 1027 0 15.1 23.5 32.7 85.3 73.4 250.6
West Angelas 08/05 01:40 16.6 32 4.52 -0.2 17 20 1022.6 0 10.9 19.5 24.2 62.6 47.3 159.4
West Musgrave Airport 08/05 01:40 13.4 55 6.39 4.6 19 22 1013.1 0 14.9 22.6 31.4 82.1 70.7 241.5
Wiluna Airport 08/05 01:40 13.8 55 6.55 4.9 17 19 1026.6 0 15.2 23.2 32.4 84.5 73.2 250.0
Witchcliffe West 08/05 01:40 10.9 92 9.15 9.7 17 19 1030.2 0 20.9 28.4 44.4 116.5 111.3 383.1
Wyndham Airport 08/05 03:10 18.1 56 8.65 9.2 9 9 1014.8 0 19.5 24.8 38.0 99.6 93.9 323.2
Yampi Sound (Defence) 08/05 01:40 20.4 54 9.55 11 2 4 1018.1 0 21.3 25.7 40.4 106.1 102.5 353.7

Last Refresh: 08-May-2026 03:14:03

Bureau of Meteorology